sensor_id;sensor_type;location;lat;lon;timestamp;pressure;altitude;pressure_sealevel;temperature;humidity
77639;BME280;66802;52.574;14.398;2023-04-24T03:02:32;100296.34;;;9.52;87.18
77639;BME280;66802;52.574;14.398;2023-04-24T03:04:59;100294.94;;;9.40;88.06
77639;BME280;66802;52.574;14.398;2023-04-24T03:07:25;100292.72;;;9.36;87.91
77639;BME280;66802;52.574;14.398;2023-04-24T03:09:51;100287.16;;;9.37;87.71
77639;BME280;66802;52.574;14.398;2023-04-24T03:12:17;100283.25;;;9.32;87.91
77639;BME280;66802;52.574;14.398;2023-04-24T03:14:45;100283.47;;;9.38;88.33
77639;BME280;66802;52.574;14.398;2023-04-24T03:17:11;100284.78;;;9.34;88.10
77639;BME280;66802;52.574;14.398;2023-04-24T03:19:36;100299.25;;;9.33;88.23
77639;BME280;66802;52.574;14.398;2023-04-24T03:22:02;100302.78;;;9.34;88.90
77639;BME280;66802;52.574;14.398;2023-04-24T03:24:28;100289.16;;;9.35;88.31
77639;BME280;66802;52.574;14.398;2023-04-24T03:26:54;100297.94;;;9.37;88.01
77639;BME280;66802;52.574;14.398;2023-04-24T03:29:21;100291.16;;;9.33;88.19
77639;BME280;66802;52.574;14.398;2023-04-24T03:31:46;100296.56;;;9.33;88.42
77639;BME280;66802;52.574;14.398;2023-04-24T03:34:12;100293.25;;;9.39;87.82
77639;BME280;66802;52.574;14.398;2023-04-24T03:36:37;100295.25;;;9.37;88.13
77639;BME280;66802;52.574;14.398;2023-04-24T03:39:03;100294.75;;;9.42;87.40
77639;BME280;66802;52.574;14.398;2023-04-24T03:41:29;100285.31;;;9.38;87.53
77639;BME280;66802;52.574;14.398;2023-04-24T03:43:55;100280.19;;;9.27;87.97
77639;BME280;66802;52.574;14.398;2023-04-24T03:46:21;100275.16;;;9.32;87.79
77639;BME280;66802;52.574;14.398;2023-04-24T03:48:46;100291.16;;;9.33;87.60
77639;BME280;66802;52.574;14.398;2023-04-24T03:51:12;100290.47;;;9.31;87.42
77639;BME280;66802;52.574;14.398;2023-04-24T03:53:38;100288.13;;;9.28;88.11
77639;BME280;66802;52.574;14.398;2023-04-24T03:56:03;100295.41;;;9.36;87.61
77639;BME280;66802;52.574;14.398;2023-04-24T03:58:29;100290.31;;;9.33;87.79
77639;BME280;66802;52.574;14.398;2023-04-24T04:00:55;100292.88;;;9.34;87.61
77639;BME280;66802;52.574;14.398;2023-04-24T04:03:23;100295.56;;;9.34;87.72
77639;BME280;66802;52.574;14.398;2023-04-24T04:05:49;100289.97;;;9.28;87.49
77639;BME280;66802;52.574;14.398;2023-04-24T04:08:14;100291.16;;;9.33;87.62
77639;BME280;66802;52.574;14.398;2023-04-24T04:10:40;100299.25;;;9.33;87.47
77639;BME280;66802;52.574;14.398;2023-04-24T04:13:05;100298.56;;;9.31;87.38
77639;BME280;66802;52.574;14.398;2023-04-24T04:15:31;100299.94;;;9.35;86.99
77639;BME280;66802;52.574;14.398;2023-04-24T04:17:57;100295.09;;;9.39;86.58
77639;BME280;66802;52.574;14.398;2023-04-24T04:20:23;100294.94;;;9.40;86.81
77639;BME280;66802;52.574;14.398;2023-04-24T04:22:48;100303.38;;;9.45;86.56
77639;BME280;66802;52.574;14.398;2023-04-24T04:25:14;100306.22;;;9.44;86.24
77639;BME280;66802;52.574;14.398;2023-04-24T04:27:39;100318.00;;;9.43;86.72
77639;BME280;66802;52.574;14.398;2023-04-24T04:30:07;100308.22;;;9.42;87.09
77639;BME280;66802;52.574;14.398;2023-04-24T04:32:34;100306.78;;;9.47;87.25
77639;BME280;66802;52.574;14.398;2023-04-24T04:35:01;100307.13;;;9.52;87.75
77639;BME280;66802;52.574;14.398;2023-04-24T04:37:32;100311.06;;;9.58;88.15
77639;BME280;66802;52.574;14.398;2023-04-24T04:40:02;100311.09;;;9.66;87.67
77639;BME280;66802;52.574;14.398;2023-04-24T04:42:33;100306.25;;;9.70;88.25
77639;BME280;66802;52.574;14.398;2023-04-24T04:45:07;100302.63;;;9.87;87.86
77639;BME280;66802;52.574;14.398;2023-04-24T04:47:34;100300.31;;;9.92;87.51
77639;BME280;66802;52.574;14.398;2023-04-24T04:50:00;100310.28;;;10.00;87.81
77639;BME280;66802;52.574;14.398;2023-04-24T04:52:25;100303.41;;;10.05;87.40
77639;BME280;66802;52.574;14.398;2023-04-24T04:54:52;100309.66;;;10.14;87.17
77639;BME280;66802;52.574;14.398;2023-04-24T04:57:17;100303.81;;;10.18;86.65
77639;BME280;66802;52.574;14.398;2023-04-24T04:59:43;100310.44;;;10.32;86.83
77639;BME280;66802;52.574;14.398;2023-04-24T05:02:09;100311.69;;;10.46;85.73
77639;BME280;66802;52.574;14.398;2023-04-24T05:04:34;100307.13;;;10.46;86.26
77639;BME280;66802;52.574;14.398;2023-04-24T05:07:00;100314.84;;;10.41;87.00
77639;BME280;66802;52.574;14.398;2023-04-24T05:09:26;100311.16;;;10.50;86.09
77639;BME280;66802;52.574;14.398;2023-04-24T05:11:53;100312.72;;;10.61;86.13
77639;BME280;66802;52.574;14.398;2023-04-24T05:14:18;100316.94;;;10.64;85.98
77639;BME280;66802;52.574;14.398;2023-04-24T05:16:44;100308.34;;;10.68;85.94
77639;BME280;66802;52.574;14.398;2023-04-24T05:19:10;100313.44;;;10.79;85.59
77639;BME280;66802;52.574;14.398;2023-04-24T05:21:37;100309.53;;;10.82;85.70
77639;BME280;66802;52.574;14.398;2023-04-24T05:24:04;100313.09;;;10.82;85.45
77639;BME280;66802;52.574;14.398;2023-04-24T05:26:30;100307.88;;;10.89;85.82
77639;BME280;66802;52.574;14.398;2023-04-24T05:28:55;100311.44;;;10.97;85.88
77639;BME280;66802;52.574;14.398;2023-04-24T05:31:21;100314.47;;;11.03;85.18
77639;BME280;66802;52.574;14.398;2023-04-24T05:33:46;100310.75;;;11.04;85.45
77639;BME280;66802;52.574;14.398;2023-04-24T05:36:12;100313.47;;;11.12;85.06
77639;BME280;66802;52.574;14.398;2023-04-24T05:38:38;100320.38;;;11.14;85.17
77639;BME280;66802;52.574;14.398;2023-04-24T05:41:04;100317.00;;;11.20;85.30
77639;BME280;66802;52.574;14.398;2023-04-24T05:43:29;100313.47;;;11.28;85.70
77639;BME280;66802;52.574;14.398;2023-04-24T05:45:55;100314.13;;;11.30;85.79
77639;BME280;66802;52.574;14.398;2023-04-24T05:48:21;100309.25;;;11.33;84.82
77639;BME280;66802;52.574;14.398;2023-04-24T05:50:48;100317.34;;;11.42;85.33
77639;BME280;66802;52.574;14.398;2023-04-24T05:53:13;100298.91;;;11.53;85.29
77639;BME280;66802;52.574;14.398;2023-04-24T05:55:39;100295.38;;;11.53;84.93
77639;BME280;66802;52.574;14.398;2023-04-24T05:58:05;100294.47;;;11.68;84.38
77639;BME280;66802;52.574;14.398;2023-04-24T06:00:31;100300.41;;;11.72;83.37
77639;BME280;66802;52.574;14.398;2023-04-24T06:02:59;100313.41;;;11.68;83.93
77639;BME280;66802;52.574;14.398;2023-04-24T06:05:25;100311.06;;;11.65;84.57
77639;BME280;66802;52.574;14.398;2023-04-24T06:07:51;100306.34;;;11.67;84.33
77639;BME280;66802;52.574;14.398;2023-04-24T06:10:17;100308.34;;;11.65;84.05
77639;BME280;66802;52.574;14.398;2023-04-24T06:12:42;100311.06;;;11.65;84.12
77639;BME280;66802;52.574;14.398;2023-04-24T06:15:08;100312.06;;;11.73;83.80
77639;BME280;66802;52.574;14.398;2023-04-24T06:17:34;100306.66;;;11.81;83.30
77639;BME280;66802;52.574;14.398;2023-04-24T06:19:59;100319.53;;;11.79;83.46
77639;BME280;66802;52.574;14.398;2023-04-24T06:22:25;100305.31;;;11.77;83.92
77639;BME280;66802;52.574;14.398;2023-04-24T06:24:50;100307.31;;;11.75;83.72
77639;BME280;66802;52.574;14.398;2023-04-24T06:27:16;100317.47;;;11.81;83.76
77639;BME280;66802;52.574;14.398;2023-04-24T06:29:42;100319.13;;;11.90;83.62
77639;BME280;66802;52.574;14.398;2023-04-24T06:32:07;100322.66;;;12.06;82.78
77639;BME280;66802;52.574;14.398;2023-04-24T06:34:33;100321.59;;;12.16;82.78
77639;BME280;66802;52.574;14.398;2023-04-24T06:37:00;100326.13;;;12.31;82.38
77639;BME280;66802;52.574;14.398;2023-04-24T06:39:25;100326.03;;;12.48;81.62
77639;BME280;66802;52.574;14.398;2023-04-24T06:41:51;100324.66;;;12.52;81.10
77639;BME280;66802;52.574;14.398;2023-04-24T06:44:16;100323.47;;;12.54;81.38
77639;BME280;66802;52.574;14.398;2023-04-24T06:46:42;100327.66;;;12.65;81.30
77639;BME280;66802;52.574;14.398;2023-04-24T06:49:08;100325.28;;;12.62;81.21
77639;BME280;66802;52.574;14.398;2023-04-24T06:51:33;100317.09;;;12.70;81.44
77639;BME280;66802;52.574;14.398;2023-04-24T06:53:59;100323.84;;;12.74;80.14
77639;BME280;66802;52.574;14.398;2023-04-24T06:56:25;100316.09;;;12.71;80.10
77639;BME280;66802;52.574;14.398;2023-04-24T06:58:51;100325.84;;;12.80;80.33
77639;BME280;66802;52.574;14.398;2023-04-24T07:01:17;100318.88;;;13.08;81.05
77639;BME280;66802;52.574;14.398;2023-04-24T07:03:43;100310.47;;;13.26;79.22
77639;BME280;66802;52.574;14.398;2023-04-24T07:06:09;100313.44;;;13.54;79.18
77639;BME280;66802;52.574;14.398;2023-04-24T07:08:36;100321.63;;;13.83;77.99
77639;BME280;66802;52.574;14.398;2023-04-24T07:11:03;100314.31;;;14.13;77.42
77639;BME280;66802;52.574;14.398;2023-04-24T07:13:28;100311.59;;;14.43;75.89
77639;BME280;66802;52.574;14.398;2023-04-24T07:15:54;100318.78;;;14.50;73.40
77639;BME280;66802;52.574;14.398;2023-04-24T07:18:21;100317.69;;;14.59;73.71
77639;BME280;66802;52.574;14.398;2023-04-24T07:20:47;100307.34;;;14.70;73.01
77639;BME280;66802;52.574;14.398;2023-04-24T07:23:13;100311.78;;;14.92;72.71
77639;BME280;66802;52.574;14.398;2023-04-24T07:25:38;100312.22;;;15.17;72.50
77639;BME280;66802;52.574;14.398;2023-04-24T07:28:04;100311.63;;;15.21;71.49
77639;BME280;66802;52.574;14.398;2023-04-24T07:30:31;100308.06;;;15.42;71.09
77639;BME280;66802;52.574;14.398;2023-04-24T07:32:58;100313.81;;;15.54;70.29
77639;BME280;66802;52.574;14.398;2023-04-24T07:35:25;100303.25;;;15.65;69.91
77639;BME280;66802;52.574;14.398;2023-04-24T07:37:53;100306.97;;;15.86;68.23
77639;BME280;66802;52.574;14.398;2023-04-24T07:40:19;100314.00;;;16.08;67.86
77639;BME280;66802;52.574;14.398;2023-04-24T07:42:45;100305.47;;;16.18;66.76
77639;BME280;66802;52.574;14.398;2023-04-24T07:45:14;100324.91;;;16.08;66.26
77639;BME280;66802;52.574;14.398;2023-04-24T07:47:41;100320.56;;;15.86;65.31
77639;BME280;66802;52.574;14.398;2023-04-24T07:50:09;100321.31;;;15.73;65.53
77639;BME280;66802;52.574;14.398;2023-04-24T07:52:35;100324.19;;;15.65;66.90
77639;BME280;66802;52.574;14.398;2023-04-24T07:55:01;100325.38;;;15.84;68.10
77639;BME280;66802;52.574;14.398;2023-04-24T07:57:28;100329.88;;;15.98;65.05
77639;BME280;66802;52.574;14.398;2023-04-24T07:59:54;100330.38;;;16.15;64.72
77639;BME280;66802;52.574;14.398;2023-04-24T08:02:19;100317.47;;;16.30;65.46
77639;BME280;66802;52.574;14.398;2023-04-24T08:04:46;100328.06;;;16.53;64.74
77639;BME280;66802;52.574;14.398;2023-04-24T08:07:12;100327.94;;;16.67;63.82
77639;BME280;66802;52.574;14.398;2023-04-24T08:09:38;100324.81;;;16.70;63.35
77639;BME280;66802;52.574;14.398;2023-04-24T08:12:04;100335.41;;;16.52;63.38
77639;BME280;66802;52.574;14.398;2023-04-24T08:14:30;100331.19;;;16.43;63.63
77639;BME280;66802;52.574;14.398;2023-04-24T08:16:55;100337.47;;;16.43;64.88
77639;BME280;66802;52.574;14.398;2023-04-24T08:19:21;100328.47;;;16.56;65.25
77639;BME280;66802;52.574;14.398;2023-04-24T08:21:47;100334.78;;;16.57;64.44
77639;BME280;66802;52.574;14.398;2023-04-24T08:24:13;100339.88;;;16.66;63.50
77639;BME280;66802;52.574;14.398;2023-04-24T08:26:39;100338.03;;;16.73;63.11
77639;BME280;66802;52.574;14.398;2023-04-24T08:29:05;100329.03;;;16.73;62.14
77639;BME280;66802;52.574;14.398;2023-04-24T08:31:32;100332.31;;;16.62;63.16
77639;BME280;66802;52.574;14.398;2023-04-24T08:33:57;100336.06;;;16.54;62.89
77639;BME280;66802;52.574;14.398;2023-04-24T08:36:24;100324.53;;;16.59;62.26
77639;BME280;66802;52.574;14.398;2023-04-24T08:38:49;100326.47;;;16.65;62.38
77639;BME280;66802;52.574;14.398;2023-04-24T08:41:15;100324.41;;;16.73;62.06
77639;BME280;66802;52.574;14.398;2023-04-24T08:43:43;100326.53;;;16.91;62.21
77639;BME280;66802;52.574;14.398;2023-04-24T08:46:09;100314.88;;;17.17;60.67
77639;BME280;66802;52.574;14.398;2023-04-24T08:48:36;100317.63;;;17.30;62.20
77639;BME280;66802;52.574;14.398;2023-04-24T08:51:29;100321.38;;;17.29;60.16
77639;BME280;66802;52.574;14.398;2023-04-24T08:53:57;100319.28;;;17.25;59.75
77639;BME280;66802;52.574;14.398;2023-04-24T08:56:23;100320.75;;;17.27;60.57
77639;BME280;66802;52.574;14.398;2023-04-24T08:58:54;100324.13;;;17.36;59.60
77639;BME280;66802;52.574;14.398;2023-04-24T09:01:20;100326.22;;;17.60;62.06
77639;BME280;66802;52.574;14.398;2023-04-24T09:03:49;100326.47;;;17.72;58.20
77639;BME280;66802;52.574;14.398;2023-04-24T09:06:17;100319.50;;;17.76;59.08
77639;BME280;66802;52.574;14.398;2023-04-24T09:08:43;100321.59;;;17.61;56.90
77639;BME280;66802;52.574;14.398;2023-04-24T09:11:11;100318.88;;;17.61;57.46
77639;BME280;66802;52.574;14.398;2023-04-24T09:13:37;100319.72;;;17.61;58.00
77639;BME280;66802;52.574;14.398;2023-04-24T09:16:03;100315.31;;;17.67;58.11
77639;BME280;66802;52.574;14.398;2023-04-24T09:18:29;100319.09;;;17.92;57.75
77639;BME280;66802;52.574;14.398;2023-04-24T09:20:58;100310.66;;;18.00;56.59
77639;BME280;66802;52.574;14.398;2023-04-24T09:23:32;100311.28;;;18.02;56.39
77639;BME280;66802;52.574;14.398;2023-04-24T09:25:59;100312.75;;;18.05;57.70
77639;BME280;66802;52.574;14.398;2023-04-24T09:28:35;100306.66;;;18.09;56.01
77639;BME280;66802;52.574;14.398;2023-04-24T09:33:35;100306.59;;;18.29;54.33
77639;BME280;66802;52.574;14.398;2023-04-24T09:36:02;100310.84;;;18.76;55.83
77639;BME280;66802;52.574;14.398;2023-04-24T09:38:37;100306.38;;;18.88;52.01
77639;BME280;66802;52.574;14.398;2023-04-24T09:41:07;100306.44;;;18.75;54.25
77639;BME280;66802;52.574;14.398;2023-04-24T09:43:34;100309.41;;;18.67;53.36
77639;BME280;66802;52.574;14.398;2023-04-24T09:46:05;100315.16;;;18.39;53.72
77639;BME280;66802;52.574;14.398;2023-04-24T09:48:36;100307.03;;;18.26;54.35
77639;BME280;66802;52.574;14.398;2023-04-24T09:51:04;100316.53;;;18.10;54.27
77639;BME280;66802;52.574;14.398;2023-04-24T09:53:32;100318.22;;;17.98;54.85
77639;BME280;66802;52.574;14.398;2023-04-24T09:56:09;100313.22;;;17.95;55.70
77639;BME280;66802;52.574;14.398;2023-04-24T09:58:38;100314.25;;;17.94;57.08
77639;BME280;66802;52.574;14.398;2023-04-24T10:01:04;100314.66;;;18.04;54.84
77639;BME280;66802;52.574;14.398;2023-04-24T10:03:32;100314.03;;;18.02;52.75
77639;BME280;66802;52.574;14.398;2023-04-24T10:06:04;100303.97;;;17.90;54.47
77639;BME280;66802;52.574;14.398;2023-04-24T10:08:36;100303.53;;;17.86;53.54
77639;BME280;66802;52.574;14.398;2023-04-24T10:11:01;100307.75;;;17.88;55.51
77639;BME280;66802;52.574;14.398;2023-04-24T10:13:28;100302.06;;;17.90;53.60
77639;BME280;66802;52.574;14.398;2023-04-24T10:15:54;100305.66;;;17.91;54.82
77639;BME280;66802;52.574;14.398;2023-04-24T10:18:20;100303.94;;;17.96;52.33
77639;BME280;66802;52.574;14.398;2023-04-24T10:20:47;100314.25;;;17.87;53.20
77639;BME280;66802;52.574;14.398;2023-04-24T10:23:13;100307.75;;;17.82;53.47
77639;BME280;66802;52.574;14.398;2023-04-24T10:25:38;100304.19;;;17.81;55.75
77639;BME280;66802;52.574;14.398;2023-04-24T10:28:05;100306.06;;;17.87;54.05
77639;BME280;66802;52.574;14.398;2023-04-24T10:30:33;100294.50;;;17.92;53.00
77639;BME280;66802;52.574;14.398;2023-04-24T10:33:04;100306.88;;;18.01;52.20
77639;BME280;66802;52.574;14.398;2023-04-24T10:35:37;100305.38;;;18.12;54.36
77639;BME280;66802;52.574;14.398;2023-04-24T10:38:13;100305.09;;;18.33;54.19
77639;BME280;66802;52.574;14.398;2023-04-24T10:40:39;100301.66;;;18.51;52.37
77639;BME280;66802;52.574;14.398;2023-04-24T10:43:07;100299.13;;;18.69;53.57
77639;BME280;66802;52.574;14.398;2023-04-24T10:45:35;100304.31;;;18.77;53.48
77639;BME280;66802;52.574;14.398;2023-04-24T10:48:10;100311.91;;;18.75;51.77
77639;BME280;66802;52.574;14.398;2023-04-24T10:50:47;100307.31;;;18.69;51.69
77639;BME280;66802;52.574;14.398;2023-04-24T10:53:18;100316.38;;;18.63;51.59
77639;BME280;66802;52.574;14.398;2023-04-24T10:55:52;100312.59;;;18.64;50.62
77639;BME280;66802;52.574;14.398;2023-04-24T10:58:23;100325.03;;;18.60;50.36
77639;BME280;66802;52.574;14.398;2023-04-24T11:00:59;100310.06;;;18.56;49.48
77639;BME280;66802;52.574;14.398;2023-04-24T11:03:28;100319.72;;;18.65;51.01
77639;BME280;66802;52.574;14.398;2023-04-24T11:06:08;100316.63;;;18.48;51.31
77639;BME280;66802;52.574;14.398;2023-04-24T11:08:44;100315.63;;;18.36;48.96
77639;BME280;66802;52.574;14.398;2023-04-24T11:11:16;100308.94;;;18.19;50.01
77639;BME280;66802;52.574;14.398;2023-04-24T11:16:27;100320.94;;;18.11;51.33
77639;BME280;66802;52.574;14.398;2023-04-24T11:19:08;100312.31;;;18.14;49.45
77639;BME280;66802;52.574;14.398;2023-04-24T11:21:48;100313.34;;;18.20;49.61
77639;BME280;66802;52.574;14.398;2023-04-24T11:35:20;100328.22;;;18.37;51.06
77639;BME280;66802;52.574;14.398;2023-04-24T11:37:49;100328.50;;;18.16;51.03
77639;BME280;66802;52.574;14.398;2023-04-24T11:40:16;100325.78;;;18.03;52.78
77639;BME280;66802;52.574;14.398;2023-04-24T11:42:44;100325.38;;;17.99;52.48
77639;BME280;66802;52.574;14.398;2023-04-24T11:47:40;100323.06;;;17.96;53.01
77639;BME280;66802;52.574;14.398;2023-04-24T11:50:10;100324.94;;;18.02;52.35
77639;BME280;66802;52.574;14.398;2023-04-24T11:52:38;100321.56;;;18.07;53.82
77639;BME280;66802;52.574;14.398;2023-04-24T11:55:06;100312.94;;;18.16;54.75
77639;BME280;66802;52.574;14.398;2023-04-24T11:57:32;100324.44;;;18.32;54.14
77639;BME280;66802;52.574;14.398;2023-04-24T12:00:00;100308.84;;;18.39;52.70
77639;BME280;66802;52.574;14.398;2023-04-24T12:02:27;100318.53;;;18.48;52.55
77639;BME280;66802;52.574;14.398;2023-04-24T12:04:54;100310.06;;;18.56;54.46
77639;BME280;66802;52.574;14.398;2023-04-24T12:07:22;100311.69;;;18.77;52.35
77639;BME280;66802;52.574;14.398;2023-04-24T12:09:55;100300.28;;;18.86;52.24
77639;BME280;66802;52.574;14.398;2023-04-24T12:12:25;100302.16;;;18.92;53.00
77639;BME280;66802;52.574;14.398;2023-04-24T12:14:56;100299.84;;;18.89;50.60
77639;BME280;66802;52.574;14.398;2023-04-24T12:17:26;100299.91;;;18.76;51.21
77639;BME280;66802;52.574;14.398;2023-04-24T12:19:52;100302.91;;;18.68;52.64
77639;BME280;66802;52.574;14.398;2023-04-24T12:22:18;100299.78;;;18.58;50.98
77639;BME280;66802;52.574;14.398;2023-04-24T12:24:57;100290.72;;;18.64;53.13
77639;BME280;66802;52.574;14.398;2023-04-24T12:27:24;100297.03;;;18.51;53.02
77639;BME280;66802;52.574;14.398;2023-04-24T12:29:56;100298.13;;;18.44;50.62
77639;BME280;66802;52.574;14.398;2023-04-24T12:32:21;100296.28;;;18.31;51.07
77639;BME280;66802;52.574;14.398;2023-04-24T12:34:49;100295.91;;;18.28;51.49
77639;BME280;66802;52.574;14.398;2023-04-24T12:37:16;100301.41;;;18.14;52.62
77639;BME280;66802;52.574;14.398;2023-04-24T12:42:29;100299.31;;;18.03;53.44
77639;BME280;66802;52.574;14.398;2023-04-24T12:45:06;100294.50;;;18.05;54.23
77639;BME280;66802;52.574;14.398;2023-04-24T12:47:33;100288.38;;;18.10;51.59
77639;BME280;66802;52.574;14.398;2023-04-24T12:49:59;100288.56;;;18.15;54.23
77639;BME280;66802;52.574;14.398;2023-04-24T12:52:27;100290.44;;;18.28;52.06
77639;BME280;66802;52.574;14.398;2023-04-24T12:54:54;100282.16;;;18.41;52.79
77639;BME280;66802;52.574;14.398;2023-04-24T12:57:21;100277.31;;;18.49;52.88
77639;BME280;66802;52.574;14.398;2023-04-24T12:59:46;100279.56;;;18.66;52.49
77639;BME280;66802;52.574;14.398;2023-04-24T13:02:12;100283.38;;;18.58;50.00
77639;BME280;66802;52.574;14.398;2023-04-24T13:04:38;100277.94;;;18.45;50.58
77639;BME280;66802;52.574;14.398;2023-04-24T13:07:05;100274.16;;;18.39;49.96
77639;BME280;66802;52.574;14.398;2023-04-24T13:09:31;100274.47;;;18.18;49.43
77639;BME280;66802;52.574;14.398;2023-04-24T13:11:56;100278.28;;;18.17;50.89
77639;BME280;66802;52.574;14.398;2023-04-24T13:14:22;100271.97;;;18.16;50.90
77639;BME280;66802;52.574;14.398;2023-04-24T13:16:49;100273.69;;;18.04;51.23
77639;BME280;66802;52.574;14.398;2023-04-24T13:19:14;100279.59;;;17.88;53.23
77639;BME280;66802;52.574;14.398;2023-04-24T13:21:40;100277.31;;;17.78;56.09
77639;BME280;66802;52.574;14.398;2023-04-24T13:24:06;100258.59;;;17.88;58.40
77639;BME280;66802;52.574;14.398;2023-04-24T13:26:33;100260.16;;;18.22;59.64
77639;BME280;66802;52.574;14.398;2023-04-24T13:28:59;100265.50;;;18.55;55.90
77639;BME280;66802;52.574;14.398;2023-04-24T13:31:24;100259.06;;;18.81;54.72
77639;BME280;66802;52.574;14.398;2023-04-24T13:33:50;100263.94;;;18.73;51.98
77639;BME280;66802;52.574;14.398;2023-04-24T13:36:16;100250.94;;;18.68;50.76
77639;BME280;66802;52.574;14.398;2023-04-24T13:38:43;100258.75;;;18.51;52.08
77639;BME280;66802;52.574;14.398;2023-04-24T13:41:10;100249.78;;;18.44;50.90
77639;BME280;66802;52.574;14.398;2023-04-24T13:43:35;100247.31;;;18.30;51.44
77639;BME280;66802;52.574;14.398;2023-04-24T13:46:01;100259.50;;;18.34;50.94
77639;BME280;66802;52.574;14.398;2023-04-24T13:48:29;100256.63;;;18.15;49.50
77639;BME280;66802;52.574;14.398;2023-04-24T13:50:55;100261.50;;;18.00;51.79
77639;BME280;66802;52.574;14.398;2023-04-24T13:53:20;100252.50;;;17.80;51.94
77639;BME280;66802;52.574;14.398;2023-04-24T13:55:46;100259.44;;;17.76;51.62
77639;BME280;66802;52.574;14.398;2023-04-24T13:58:11;100244.31;;;17.93;51.02
77639;BME280;66802;52.574;14.398;2023-04-24T14:00:37;100258.75;;;18.00;51.03
77639;BME280;66802;52.574;14.398;2023-04-24T14:03:03;100253.31;;;18.00;50.90
77639;BME280;66802;52.574;14.398;2023-04-24T14:05:29;100252.63;;;18.11;50.62
77639;BME280;66802;52.574;14.398;2023-04-24T14:07:54;100249.03;;;18.24;50.80
77639;BME280;66802;52.574;14.398;2023-04-24T14:10:20;100253.03;;;18.21;51.75
77639;BME280;66802;52.574;14.398;2023-04-24T14:12:46;100250.13;;;18.10;51.40
77639;BME280;66802;52.574;14.398;2023-04-24T14:15:11;100257.09;;;17.99;51.46
77639;BME280;66802;52.574;14.398;2023-04-24T14:17:39;100252.31;;;17.81;50.30
77639;BME280;66802;52.574;14.398;2023-04-24T14:20:08;100252.31;;;17.68;50.94
77639;BME280;66802;52.574;14.398;2023-04-24T14:22:34;100251.47;;;17.68;52.07
77639;BME280;66802;52.574;14.398;2023-04-24T14:24:59;100241.81;;;17.72;51.51
77639;BME280;66802;52.574;14.398;2023-04-24T14:27:25;100248.75;;;17.68;51.25
77639;BME280;66802;52.574;14.398;2023-04-24T14:29:52;100248.56;;;17.63;50.68
77639;BME280;66802;52.574;14.398;2023-04-24T14:32:17;100247.28;;;17.59;49.46
77639;BME280;66802;52.574;14.398;2023-04-24T14:34:43;100246.66;;;17.63;50.42
77639;BME280;66802;52.574;14.398;2023-04-24T14:37:09;100237.19;;;17.66;49.02
77639;BME280;66802;52.574;14.398;2023-04-24T14:39:34;100251.31;;;17.63;50.10
77639;BME280;66802;52.574;14.398;2023-04-24T14:42:00;100247.06;;;17.60;49.26
77639;BME280;66802;52.574;14.398;2023-04-24T14:44:26;100240.53;;;17.55;49.55
77639;BME280;66802;52.574;14.398;2023-04-24T14:46:52;100243.94;;;17.50;49.21
77639;BME280;66802;52.574;14.398;2023-04-24T14:49:18;100236.59;;;17.50;48.20
77639;BME280;66802;52.574;14.398;2023-04-24T14:51:44;100257.34;;;17.45;50.72
77639;BME280;66802;52.574;14.398;2023-04-24T14:54:09;100245.59;;;17.44;47.56
77639;BME280;66802;52.574;14.398;2023-04-24T14:56:35;100248.75;;;17.41;47.29
77639;BME280;66802;52.574;14.398;2023-04-24T14:59:01;100251.47;;;17.41;48.45
77639;BME280;66802;52.574;14.398;2023-04-24T15:01:27;100253.59;;;17.39;50.66
77639;BME280;66802;52.574;14.398;2023-04-24T15:03:52;100252.13;;;17.37;47.20
77639;BME280;66802;52.574;14.398;2023-04-24T15:06:18;100250.22;;;17.31;48.57
77639;BME280;66802;52.574;14.398;2023-04-24T15:08:44;100256.31;;;17.26;46.65
77639;BME280;66802;52.574;14.398;2023-04-24T15:11:10;100252.53;;;17.21;46.73
77639;BME280;66802;52.574;14.398;2023-04-24T15:13:36;100253.16;;;17.09;46.03
77639;BME280;66802;52.574;14.398;2023-04-24T15:16:02;100261.34;;;17.03;45.32
77639;BME280;66802;52.574;14.398;2023-04-24T15:18:27;100265.31;;;17.00;46.55
77639;BME280;66802;52.574;14.398;2023-04-24T15:20:55;100266.34;;;16.93;45.00
77639;BME280;66802;52.574;14.398;2023-04-24T15:23:21;100256.50;;;16.85;45.04
77639;BME280;66802;52.574;14.398;2023-04-24T15:25:47;100247.28;;;16.86;46.27
77639;BME280;66802;52.574;14.398;2023-04-24T15:28:12;100259.84;;;16.94;45.81
77639;BME280;66802;52.574;14.398;2023-04-24T15:30:38;100248.53;;;16.97;47.07
77639;BME280;66802;52.574;14.398;2023-04-24T15:33:04;100252.75;;;17.12;46.60
77639;BME280;66802;52.574;14.398;2023-04-24T15:35:30;100254.00;;;17.36;45.69
77639;BME280;66802;52.574;14.398;2023-04-24T15:37:56;100252.97;;;17.50;45.83
77639;BME280;66802;52.574;14.398;2023-04-24T15:40:22;100257.56;;;17.63;44.36
77639;BME280;66802;52.574;14.398;2023-04-24T15:42:47;100259.03;;;17.52;42.71
77639;BME280;66802;52.574;14.398;2023-04-24T15:45:13;100249.38;;;17.50;41.55
77639;BME280;66802;52.574;14.398;2023-04-24T15:47:39;100257.78;;;17.48;41.70
77639;BME280;66802;52.574;14.398;2023-04-24T15:50:08;100257.78;;;17.48;40.10
77639;BME280;66802;52.574;14.398;2023-04-24T15:52:34;100262.59;;;17.46;40.37
77639;BME280;66802;52.574;14.398;2023-04-24T15:55:00;100258.59;;;17.42;40.71
77639;BME280;66802;52.574;14.398;2023-04-24T15:57:26;100260.09;;;17.45;41.58
77639;BME280;66802;52.574;14.398;2023-04-24T15:59:52;100257.78;;;17.48;40.42
77639;BME280;66802;52.574;14.398;2023-04-24T16:02:17;100262.59;;;17.53;40.75